Map

Track Data

SID SEASON NUMBER BASIN SUBBASIN NAME ISO_TIME NATURE LAT LON WMO_WIND WMO_PRES WMO_AGENCY TRACK_TYPE DIST2LAND LANDFALL IFLAG USA_AGENCY USA_ATCF_ID USA_LAT USA_LON USA_RECORD USA_STATUS USA_WIND USA_PRES USA_SSHS USA_R34_NE USA_R34_SE USA_R34_SW USA_R34_NW USA_R50_NE USA_R50_SE USA_R50_SW USA_R50_NW USA_R64_NE USA_R64_SE USA_R64_SW USA_R64_NW USA_POCI USA_ROCI USA_RMW USA_EYE TOKYO_LAT TOKYO_LON TOKYO_GRADE TOKYO_WIND TOKYO_PRES TOKYO_R50_DIR TOKYO_R50_LONG TOKYO_R50_SHORT TOKYO_R30_DIR TOKYO_R30_LONG TOKYO_R30_SHORT TOKYO_LAND CMA_LAT CMA_LON CMA_CAT CMA_WIND CMA_PRES HKO_LAT HKO_LON HKO_CAT HKO_WIND HKO_PRES NEWDELHI_LAT NEWDELHI_LON NEWDELHI_GRADE NEWDELHI_WIND NEWDELHI_PRES NEWDELHI_CI NEWDELHI_DP NEWDELHI_POCI REUNION_LAT REUNION_LON REUNION_TYPE REUNION_WIND REUNION_PRES REUNION_TNUM REUNION_CI REUNION_RMW REUNION_R34_NE REUNION_R34_SE REUNION_R34_SW REUNION_R34_NW REUNION_R50_NE REUNION_R50_SE REUNION_R50_SW REUNION_R50_NW REUNION_R64_NE REUNION_R64_SE REUNION_R64_SW REUNION_R64_NW BOM_LAT BOM_LON BOM_TYPE BOM_WIND BOM_PRES BOM_TNUM BOM_CI BOM_RMW BOM_R34_NE BOM_R34_SE BOM_R34_SW BOM_R34_NW BOM_R50_NE BOM_R50_SE BOM_R50_SW BOM_R50_NW BOM_R64_NE BOM_R64_SE BOM_R64_SW BOM_R64_NW BOM_ROCI BOM_POCI BOM_EYE BOM_POS_METHOD BOM_PRES_METHOD NADI_LAT NADI_LON NADI_CAT NADI_WIND NADI_PRES WELLINGTON_LAT WELLINGTON_LON WELLINGTON_WIND WELLINGTON_PRES DS824_LAT DS824_LON DS824_STAGE DS824_WIND DS824_PRES TD9636_LAT TD9636_LON TD9636_STAGE TD9636_WIND TD9636_PRES TD9635_LAT TD9635_LON TD9635_WIND TD9635_PRES TD9635_ROCI NEUMANN_LAT NEUMANN_LON NEUMANN_CLASS NEUMANN_WIND NEUMANN_PRES MLC_LAT MLC_LON MLC_CLASS MLC_WIND MLC_PRES USA_GUST BOM_GUST BOM_GUST_PER REUNION_GUST REUNION_GUST_PER USA_SEAHGT USA_SEARAD_NE USA_SEARAD_SE USA_SEARAD_SW USA_SEARAD_NW STORM_SPEED STORM_DIR
1909232N15305 1909 42 NA NA NOT_NAMED 1909-08-20 06:00:00 TS 15.4000 -55.3000 60 hurdat_atl main 811 770 O_____________ hurdat_atl AL061909 15.4000 -55.3000 TS 60 0 10 275
1909232N15305 1909 42 NA NA NOT_NAMED 1909-08-20 09:00:00 TS 15.4402 -55.7975 main 770 740 P_____________ AL061909 15.4402 -55.7975 TS 60 0 10 276
1909232N15305 1909 42 NA NA NOT_NAMED 1909-08-20 12:00:00 TS 15.5000 -56.3000 60 hurdat_atl main 740 712 O_____________ hurdat_atl AL061909 15.5000 -56.3000 TS 60 0 10 279
1909232N15305 1909 42 NA NA NOT_NAMED 1909-08-20 15:00:00 TS 15.5924 -56.8075 main 712 688 P_____________ AL061909 15.5924 -56.8075 TS 65 1 10 282
1909232N15305 1909 42 NA NA NOT_NAMED 1909-08-20 18:00:00 TS 15.7000 -57.3000 70 hurdat_atl main 688 673 O_____________ hurdat_atl AL061909 15.7000 -57.3000 HU 70 1 9 283
1909232N15305 1909 42 NA NA NOT_NAMED 1909-08-20 21:00:00 TS 15.7997 -57.7351 main 673 656 P_____________ AL061909 15.7997 -57.7351 HU 70 1 9 283
1909232N15305 1909 42 NA NA NOT_NAMED 1909-08-21 00:00:00 TS 15.9000 -58.2000 70 hurdat_atl main 656 639 O_____________ hurdat_atl AL061909 15.9000 -58.2000 HU 70 1 10 281
1909232N15305 1909 42 NA NA NOT_NAMED 1909-08-21 03:00:00 TS 16.0001 -58.7850 main 639 628 P_____________ AL061909 16.0001 -58.7850 HU 70 1 12 280
1909232N15305 1909 42 NA NA NOT_NAMED 1909-08-21 06:00:00 TS 16.1000 -59.4000 70 hurdat_atl main 628 620 O_____________ hurdat_atl AL061909 16.1000 -59.4000 HU 70 1 11 280
1909232N15305 1909 42 NA NA NOT_NAMED 1909-08-21 09:00:00 TS 16.1996 -59.9351 main 627 581 P_____________ AL061909 16.1996 -59.9351 HU 70 1 11 281
1909232N15305 1909 42 NA CS NOT_NAMED 1909-08-21 12:00:00 TS 16.3000 -60.5000 70 hurdat_atl main 581 508 O_____________ hurdat_atl AL061909 16.3000 -60.5000 HU 70 1 12 279
1909232N15305 1909 42 NA CS NOT_NAMED 1909-08-21 15:00:00 TS 16.4002 -61.2000 main 508 436 P_____________ AL061909 16.4002 -61.2000 HU 72 1 14 278
1909232N15305 1909 42 NA CS NOT_NAMED 1909-08-21 18:00:00 TS 16.5000 -61.9000 75 hurdat_atl main 436 383 O_____________ hurdat_atl AL061909 16.5000 -61.9000 HU 75 1 12 279
1909232N15305 1909 42 NA CS NOT_NAMED 1909-08-21 21:00:00 TS 16.5921 -62.4652 main 374 322 P_____________ AL061909 16.5921 -62.4652 HU 75 1 11 281
1909232N15305 1909 42 NA CS NOT_NAMED 1909-08-22 00:00:00 TS 16.7000 -63.0000 75 hurdat_atl main 322 272 O_____________ hurdat_atl AL061909 16.7000 -63.0000 HU 75 1 11 283
1909232N15305 1909 42 NA CS NOT_NAMED 1909-08-22 03:00:00 TS 16.8422 -63.5701 main 263 200 P_____________ AL061909 16.8422 -63.5701 HU 75 1 12 285
1909232N15305 1909 42 NA CS NOT_NAMED 1909-08-22 06:00:00 TS 17.0000 -64.2000 75 hurdat_atl main 200 138 O_____________ hurdat_atl AL061909 17.0000 -64.2000 HU 75 1 13 284
1909232N15305 1909 42 NA CS NOT_NAMED 1909-08-22 09:00:00 TS 17.1497 -64.9052 main 138 79 P_____________ AL061909 17.1497 -64.9052 HU 77 1 15 282
1909232N15305 1909 42 NA CS NOT_NAMED 1909-08-22 12:00:00 TS 17.3000 -65.7000 80 hurdat_atl main 79 55 O_____________ hurdat_atl AL061909 17.3000 -65.7000 HU 80 1 16 281
1909232N15305 1909 42 NA CS NOT_NAMED 1909-08-22 15:00:00 TS 17.4501 -66.5926 main 54 33 P_____________ AL061909 17.4501 -66.5926 HU 80 1 17 280
1909232N15305 1909 42 NA CS NOT_NAMED 1909-08-22 18:00:00 TS 17.6000 -67.5000 80 hurdat_atl main 46 46 O_____________ hurdat_atl AL061909 17.6000 -67.5000 HU 80 1 17 280
1909232N15305 1909 42 NA CS NOT_NAMED 1909-08-22 21:00:00 TS 17.7420 -68.3153 main 64 35 P_____________ AL061909 17.7420 -68.3153 HU 80 1 16 281
1909232N15305 1909 42 NA CS NOT_NAMED 1909-08-23 00:00:00 TS 17.9000 -69.1000 80 hurdat_atl main 46 30 O_____________ hurdat_atl AL061909 17.9000 -69.1000 HU 80 1 15 283
1909232N15305 1909 42 NA CS NOT_NAMED 1909-08-23 03:00:00 TS 18.0847 -69.9002 main 30 0 P_____________ AL061909 18.0847 -69.9002 HU 75 1 16 285
1909232N15305 1909 42 NA CS NOT_NAMED 1909-08-23 06:00:00 TS 18.3000 -70.7000 70 hurdat_atl main 10 0 O_____________ hurdat_atl AL061909 18.3000 -70.7000 HU 70 1 16 285
1909232N15305 1909 42 NA NA NOT_NAMED 1909-08-23 09:00:00 TS 18.4971 -71.4934 main 0 0 P_____________ AL061909 18.4971 -71.4934 HU 67 1 16 288
1909232N15305 1909 42 NA NA NOT_NAMED 1909-08-23 12:00:00 TS 18.8000 -72.3000 65 hurdat_atl main 0 0 O_____________ hurdat_atl AL061909 18.8000 -72.3000 HU 65 1 18 299
1909232N15305 1909 42 NA CS NOT_NAMED 1909-08-23 15:00:00 TS 19.3571 -73.1341 main 22 0 P_____________ AL061909 19.3571 -73.1341 HU 70 1 19 304
1909232N15305 1909 42 NA CS NOT_NAMED 1909-08-23 18:00:00 TS 19.9000 -74.0000 75 hurdat_atl main 35 0 O_____________ hurdat_atl AL061909 19.9000 -74.0000 HU 75 1 18 296
1909232N15305 1909 42 NA NA NOT_NAMED 1909-08-23 21:00:00 TS 20.1671 -74.8933 main 0 0 P_____________ AL061909 20.1671 -74.8933 HU 70 1 17 283
1909232N15305 1909 42 NA NA NOT_NAMED 1909-08-24 00:00:00 TS 20.3000 -75.8000 65 hurdat_atl main 0 0 O_____________ hurdat_atl AL061909 20.3000 -75.8000 HU 65 1 17 279
1909232N15305 1909 42 NA NA NOT_NAMED 1909-08-24 03:00:00 TS 20.4219 -76.6928 main 0 0 P_____________ AL061909 20.4219 -76.6928 HU 65 1 17 277
1909232N15305 1909 42 NA CS NOT_NAMED 1909-08-24 06:00:00 TS 20.5000 -77.6000 65 hurdat_atl main 22 22 O_____________ hurdat_atl AL061909 20.5000 -77.6000 HU 65 1 18 274
1909232N15305 1909 42 NA CS NOT_NAMED 1909-08-24 09:00:00 TS 20.5574 -78.5651 main 45 45 P_____________ AL061909 20.5574 -78.5651 HU 70 1 18 273
1909232N15305 1909 42 NA CS NOT_NAMED 1909-08-24 12:00:00 TS 20.6000 -79.5000 75 hurdat_atl main 105 105 O_____________ hurdat_atl AL061909 20.6000 -79.5000 HU 75 1 17 273
1909232N15305 1909 42 NA CS NOT_NAMED 1909-08-24 15:00:00 TS 20.6494 -80.3300 main 126 119 P_____________ AL061909 20.6494 -80.3300 HU 80 1 15 274
1909232N15305 1909 42 NA CS NOT_NAMED 1909-08-24 18:00:00 TS 20.7000 -81.1000 85 hurdat_atl main 145 124 O_____________ hurdat_atl AL061909 20.7000 -81.1000 HU 85 2 14 274
1909232N15305 1909 42 NA CS NOT_NAMED 1909-08-24 21:00:00 TS 20.7496 -81.8576 main 118 70 P_____________ AL061909 20.7496 -81.8576 HU 90 2 14 274
1909232N15305 1909 42 NA CS NOT_NAMED 1909-08-25 00:00:00 TS 20.8000 -82.6000 95 hurdat_atl main 70 67 O_____________ hurdat_atl AL061909 20.8000 -82.6000 HU 95 2 14 274
1909232N15305 1909 42 NA CS NOT_NAMED 1909-08-25 03:00:00 TS 20.8498 -83.3575 main 88 78 P_____________ AL061909 20.8498 -83.3575 HU 97 3 14 274
1909232N15305 1909 42 NA CS NOT_NAMED 1909-08-25 06:00:00 TS 20.9000 -84.1000 100 hurdat_atl main 108 100 O_____________ hurdat_atl AL061909 20.9000 -84.1000 HU 100 3 14 274
1909232N15305 1909 42 NA CS NOT_NAMED 1909-08-25 09:00:00 TS 20.9496 -84.8075 main 100 89 P_____________ AL061909 20.9496 -84.8075 HU 100 3 13 274
1909232N15305 1909 42 NA CS NOT_NAMED 1909-08-25 12:00:00 TS 21.0000 -85.5000 100 hurdat_atl main 113 53 O_____________ hurdat_atl AL061909 21.0000 -85.5000 HU 100 3 13 274
1909232N15305 1909 42 NA CS NOT_NAMED 1909-08-25 15:00:00 TS 21.0421 -86.1927 main 53 0 P_____________ AL061909 21.0421 -86.1927 HU 95 2 13 274
1909232N15305 1909 42 NA NA NOT_NAMED 1909-08-25 18:00:00 TS 21.1000 -86.9000 90 hurdat_atl main 0 0 O_____________ hurdat_atl AL061909 21.1000 -86.9000 HU 90 2 14 276
1909232N15305 1909 42 NA NA NOT_NAMED 1909-08-25 21:00:00 TS 21.1850 -87.6575 main 0 0 P_____________ AL061909 21.1850 -87.6575 HU 85 2 14 278
1909232N15305 1909 42 NA NA NOT_NAMED 1909-08-26 00:00:00 TS 21.3000 -88.4000 80 hurdat_atl main 0 0 O_____________ hurdat_atl AL061909 21.3000 -88.4000 HU 80 1 13 281
1909232N15305 1909 42 NA GM NOT_NAMED 1909-08-26 03:00:00 TS 21.4346 -89.0652 main 11 11 P_____________ AL061909 21.4346 -89.0652 HU 85 2 12 284
1909232N15305 1909 42 NA GM NOT_NAMED 1909-08-26 06:00:00 TS 21.6000 -89.7000 90 hurdat_atl main 44 44 O_____________ hurdat_atl AL061909 21.6000 -89.7000 HU 90 2 12 287
1909232N15305 1909 42 NA GM NOT_NAMED 1909-08-26 09:00:00 TS 21.7846 -90.3353 main 78 78 P_____________ AL061909 21.7846 -90.3353 HU 95 2 13 288
1909232N15305 1909 42 NA GM NOT_NAMED 1909-08-26 12:00:00 TS 22.0000 -91.0000 100 hurdat_atl main 123 123 O_____________ hurdat_atl AL061909 22.0000 -91.0000 HU 100 3 14 290
1909232N15305 1909 42 NA GM NOT_NAMED 1909-08-26 15:00:00 TS 22.2499 -91.7350 main 189 189 P_____________ AL061909 22.2499 -91.7350 HU 102 3 15 290
1909232N15305 1909 42 NA GM NOT_NAMED 1909-08-26 18:00:00 TS 22.5000 -92.5000 105 hurdat_atl main 275 275 O_____________ hurdat_atl AL061909 22.5000 -92.5000 HU 105 3 15 288
1909232N15305 1909 42 NA GM NOT_NAMED 1909-08-26 21:00:00 TS 22.7071 -93.2503 main 357 357 P_____________ AL061909 22.7071 -93.2503 HU 105 3 14 286
1909232N15305 1909 42 NA GM NOT_NAMED 1909-08-27 00:00:00 TS 22.9000 -94.0000 105 hurdat_atl main 369 315 O_____________ hurdat_atl AL061909 22.9000 -94.0000 HU 105 3 15 286
1909232N15305 1909 42 NA GM NOT_NAMED 1909-08-27 03:00:00 TS 23.0999 -94.7726 main 306 234 P_____________ AL061909 23.0999 -94.7726 HU 105 3 14 286
1909232N15305 1909 42 NA GM NOT_NAMED 1909-08-27 06:00:00 TS 23.3000 -95.5000 105 hurdat_atl main 234 173 O_____________ hurdat_atl AL061909 23.3000 -95.5000 HU 105 3 13 288
1909232N15305 1909 42 NA GM NOT_NAMED 1909-08-27 09:00:00 TS 23.5224 -96.1674 main 163 111 P_____________ AL061909 23.5224 -96.1674 HU 105 3 12 290
1909232N15305 1909 42 NA GM NOT_NAMED 1909-08-27 12:00:00 TS 23.7000 -96.7000 105 hurdat_atl main 111 81 O_____________ hurdat_atl AL061909 23.7000 -96.7000 HU 105 3 8 288
1909232N15305 1909 42 NA GM NOT_NAMED 1909-08-27 15:00:00 TS 23.7871 -97.0452 main 81 50 P_____________ AL061909 23.7871 -97.0452 HU 105 3 6 280
1909232N15305 1909 42 NA GM NOT_NAMED 1909-08-27 18:00:00 TS 23.8000 -97.3000 105 hurdat_atl main 50 20 O_____________ hurdat_atl AL061909 23.8000 -97.3000 HU 105 3 5 267
1909232N15305 1909 42 NA GM NOT_NAMED 1909-08-27 21:00:00 TS 23.7575 -97.6151 main 20 0 P_____________ AL061909 23.7575 -97.6151 HU 95 2 6 260
1909232N15305 1909 42 NA NA NOT_NAMED 1909-08-28 00:00:00 TS 23.7000 -97.9000 85 hurdat_atl main 0 0 O_____________ hurdat_atl AL061909 23.7000 -97.9000 HU 85 2 5 262
1909232N15305 1909 42 NA NA NOT_NAMED 1909-08-28 03:00:00 TS 23.6924 -98.1150 main 0 0 P_____________ AL061909 23.6924 -98.1150 HU 70 1 4 270
1909232N15305 1909 42 NA NA NOT_NAMED 1909-08-28 06:00:00 TS 23.7000 -98.3000 55 hurdat_atl main 0 0 O_____________ hurdat_atl AL061909 23.7000 -98.3000 TS 55 0 3 272
1909232N15305 1909 42 NA NA NOT_NAMED 1909-08-28 09:00:00 TS 23.7026 -98.4950 main 0 0 P_____________ AL061909 23.7026 -98.4950 TS 45 0 4 270
1909232N15305 1909 42 NA NA NOT_NAMED 1909-08-28 12:00:00 TS 23.7000 -98.7000 35 hurdat_atl main 0 O_____________ hurdat_atl AL061909 23.7000 -98.7000 TS 35 0 4 269

About IBTrACS Database

This database is a web-friendly format of International Best Track Archive for Climate Stewardship (IBTrACS), a global best track data archive curated by NOAA dating back to 1842.

Updated: 2021-10-21